sensor_id;sensor_type;location;lat;lon;timestamp;temperature;humidity
10654;DHT22;5375;51.250;6.776;2022-11-11T00:01:31;19.90;57.30
10654;DHT22;5375;51.250;6.776;2022-11-11T00:03:57;19.90;57.30
10654;DHT22;5375;51.250;6.776;2022-11-11T00:06:22;19.90;57.20
10654;DHT22;5375;51.250;6.776;2022-11-11T00:08:48;19.90;57.20
10654;DHT22;5375;51.250;6.776;2022-11-11T00:11:15;19.90;57.20
10654;DHT22;5375;51.250;6.776;2022-11-11T00:13:42;19.90;57.20
10654;DHT22;5375;51.250;6.776;2022-11-11T00:16:12;19.90;57.20
10654;DHT22;5375;51.250;6.776;2022-11-11T00:18:39;19.90;57.10
10654;DHT22;5375;51.250;6.776;2022-11-11T00:21:24;19.90;57.10
10654;DHT22;5375;51.250;6.776;2022-11-11T00:24:28;19.90;57.10
10654;DHT22;5375;51.250;6.776;2022-11-11T00:27:13;19.90;57.00
10654;DHT22;5375;51.250;6.776;2022-11-11T00:29:40;19.80;57.00
10654;DHT22;5375;51.250;6.776;2022-11-11T00:32:07;19.90;57.00
10654;DHT22;5375;51.250;6.776;2022-11-11T00:34:49;19.90;57.00
10654;DHT22;5375;51.250;6.776;2022-11-11T00:37:34;19.90;56.90
10654;DHT22;5375;51.250;6.776;2022-11-11T00:39:59;19.80;56.90
10654;DHT22;5375;51.250;6.776;2022-11-11T00:42:25;19.90;56.90
10654;DHT22;5375;51.250;6.776;2022-11-11T00:44:51;19.80;56.80
10654;DHT22;5375;51.250;6.776;2022-11-11T00:47:17;19.90;56.80
10654;DHT22;5375;51.250;6.776;2022-11-11T00:52:36;19.80;56.70
10654;DHT22;5375;51.250;6.776;2022-11-11T00:55:02;19.80;56.60
10654;DHT22;5375;51.250;6.776;2022-11-11T00:57:28;19.80;56.60
10654;DHT22;5375;51.250;6.776;2022-11-11T00:59:53;19.80;56.50
10654;DHT22;5375;51.250;6.776;2022-11-11T01:02:19;19.80;56.50
10654;DHT22;5375;51.250;6.776;2022-11-11T01:04:45;19.80;56.40
10654;DHT22;5375;51.250;6.776;2022-11-11T01:07:10;19.80;56.40
10654;DHT22;5375;51.250;6.776;2022-11-11T01:09:36;19.80;56.30
10654;DHT22;5375;51.250;6.776;2022-11-11T01:12:02;19.80;56.30
10654;DHT22;5375;51.250;6.776;2022-11-11T01:14:29;19.80;56.30
10654;DHT22;5375;51.250;6.776;2022-11-11T01:16:54;19.80;56.20
10654;DHT22;5375;51.250;6.776;2022-11-11T01:19:20;19.80;56.80
10654;DHT22;5375;51.250;6.776;2022-11-11T01:21:45;19.80;56.10
10654;DHT22;5375;51.250;6.776;2022-11-11T01:24:11;19.80;56.10
10654;DHT22;5375;51.250;6.776;2022-11-11T01:26:37;19.80;56.10
10654;DHT22;5375;51.250;6.776;2022-11-11T01:29:02;19.80;56.00
10654;DHT22;5375;51.250;6.776;2022-11-11T01:31:28;19.80;56.00
10654;DHT22;5375;51.250;6.776;2022-11-11T01:33:54;19.80;56.00
10654;DHT22;5375;51.250;6.776;2022-11-11T01:36:25;19.80;56.00
10654;DHT22;5375;51.250;6.776;2022-11-11T01:38:53;19.80;56.00
10654;DHT22;5375;51.250;6.776;2022-11-11T01:41:27;19.80;55.90
10654;DHT22;5375;51.250;6.776;2022-11-11T01:44:16;19.80;55.80
10654;DHT22;5375;51.250;6.776;2022-11-11T01:46:48;19.80;55.80
10654;DHT22;5375;51.250;6.776;2022-11-11T01:49:29;19.70;55.80
10654;DHT22;5375;51.250;6.776;2022-11-11T01:52:06;19.70;55.80
10654;DHT22;5375;51.250;6.776;2022-11-11T01:54:46;19.70;55.80
10654;DHT22;5375;51.250;6.776;2022-11-11T01:59:55;19.70;55.70
10654;DHT22;5375;51.250;6.776;2022-11-11T02:02:49;19.70;55.80
10654;DHT22;5375;51.250;6.776;2022-11-11T02:05:17;19.70;55.70
10654;DHT22;5375;51.250;6.776;2022-11-11T02:08:29;19.70;55.70
10654;DHT22;5375;51.250;6.776;2022-11-11T02:11:11;19.70;55.60
10654;DHT22;5375;51.250;6.776;2022-11-11T02:13:40;19.70;55.70
10654;DHT22;5375;51.250;6.776;2022-11-11T02:16:25;19.70;55.70
10654;DHT22;5375;51.250;6.776;2022-11-11T02:18:51;19.70;55.70
10654;DHT22;5375;51.250;6.776;2022-11-11T02:21:29;19.70;55.70
10654;DHT22;5375;51.250;6.776;2022-11-11T02:24:09;19.70;55.60
10654;DHT22;5375;51.250;6.776;2022-11-11T02:26:36;19.70;55.60
10654;DHT22;5375;51.250;6.776;2022-11-11T02:29:08;19.70;55.60
10654;DHT22;5375;51.250;6.776;2022-11-11T02:31:35;19.70;55.60
10654;DHT22;5375;51.250;6.776;2022-11-11T02:34:01;19.70;55.50
10654;DHT22;5375;51.250;6.776;2022-11-11T02:36:27;19.70;55.50
10654;DHT22;5375;51.250;6.776;2022-11-11T02:38:53;19.70;55.50
10654;DHT22;5375;51.250;6.776;2022-11-11T02:41:19;19.70;55.50
10654;DHT22;5375;51.250;6.776;2022-11-11T02:44:03;19.70;55.50
10654;DHT22;5375;51.250;6.776;2022-11-11T02:46:29;19.70;55.50
10654;DHT22;5375;51.250;6.776;2022-11-11T02:48:54;19.70;55.50
10654;DHT22;5375;51.250;6.776;2022-11-11T02:51:20;19.70;55.50
10654;DHT22;5375;51.250;6.776;2022-11-11T02:53:46;19.70;55.50
10654;DHT22;5375;51.250;6.776;2022-11-11T02:56:11;19.70;55.40
10654;DHT22;5375;51.250;6.776;2022-11-11T02:58:57;19.70;55.40
10654;DHT22;5375;51.250;6.776;2022-11-11T03:01:23;19.70;55.40
10654;DHT22;5375;51.250;6.776;2022-11-11T03:03:48;19.70;55.40
10654;DHT22;5375;51.250;6.776;2022-11-11T03:06:14;19.70;55.40
10654;DHT22;5375;51.250;6.776;2022-11-11T03:08:40;19.70;55.40
10654;DHT22;5375;51.250;6.776;2022-11-11T03:11:05;19.70;55.40
10654;DHT22;5375;51.250;6.776;2022-11-11T03:13:31;19.60;55.30
10654;DHT22;5375;51.250;6.776;2022-11-11T03:15:57;19.70;55.40
10654;DHT22;5375;51.250;6.776;2022-11-11T03:18:22;19.60;55.30
10654;DHT22;5375;51.250;6.776;2022-11-11T03:20:48;19.60;55.30
10654;DHT22;5375;51.250;6.776;2022-11-11T03:23:29;19.60;55.20
10654;DHT22;5375;51.250;6.776;2022-11-11T03:25:54;19.60;55.50
10654;DHT22;5375;51.250;6.776;2022-11-11T03:28:20;19.60;55.60
10654;DHT22;5375;51.250;6.776;2022-11-11T03:30:48;19.60;55.80
10654;DHT22;5375;51.250;6.776;2022-11-11T03:33:15;19.70;55.90
10654;DHT22;5375;51.250;6.776;2022-11-11T03:35:41;19.70;56.00
10654;DHT22;5375;51.250;6.776;2022-11-11T03:38:10;19.70;55.80
10654;DHT22;5375;51.250;6.776;2022-11-11T03:40:53;19.60;55.70
10654;DHT22;5375;51.250;6.776;2022-11-11T03:43:21;19.70;55.70
10654;DHT22;5375;51.250;6.776;2022-11-11T03:45:47;19.60;55.60
10654;DHT22;5375;51.250;6.776;2022-11-11T03:48:13;19.60;55.60
10654;DHT22;5375;51.250;6.776;2022-11-11T03:50:39;19.60;55.50
10654;DHT22;5375;51.250;6.776;2022-11-11T03:53:05;19.60;55.50
10654;DHT22;5375;51.250;6.776;2022-11-11T03:55:31;19.60;55.50
10654;DHT22;5375;51.250;6.776;2022-11-11T03:57:57;19.60;55.50
10654;DHT22;5375;51.250;6.776;2022-11-11T04:00:25;19.60;55.40
10654;DHT22;5375;51.250;6.776;2022-11-11T04:02:51;19.60;55.40
10654;DHT22;5375;51.250;6.776;2022-11-11T04:05:44;19.60;55.40
10654;DHT22;5375;51.250;6.776;2022-11-11T04:08:28;19.60;55.40
10654;DHT22;5375;51.250;6.776;2022-11-11T04:11:14;19.60;55.40
10654;DHT22;5375;51.250;6.776;2022-11-11T04:13:43;19.60;55.40
10654;DHT22;5375;51.250;6.776;2022-11-11T04:16:29;19.50;55.30
10654;DHT22;5375;51.250;6.776;2022-11-11T04:18:55;19.60;55.30
10654;DHT22;5375;51.250;6.776;2022-11-11T04:21:39;19.60;55.30
10654;DHT22;5375;51.250;6.776;2022-11-11T04:24:09;19.60;55.30
10654;DHT22;5375;51.250;6.776;2022-11-11T04:26:55;19.50;55.20
10654;DHT22;5375;51.250;6.776;2022-11-11T04:29:21;19.50;55.20
10654;DHT22;5375;51.250;6.776;2022-11-11T04:32:04;19.60;55.20
10654;DHT22;5375;51.250;6.776;2022-11-11T04:34:52;19.50;55.20
10654;DHT22;5375;51.250;6.776;2022-11-11T04:37:19;19.50;55.40
10654;DHT22;5375;51.250;6.776;2022-11-11T04:39:45;19.60;55.60
10654;DHT22;5375;51.250;6.776;2022-11-11T04:42:30;19.60;56.00
10654;DHT22;5375;51.250;6.776;2022-11-11T04:44:57;19.60;56.00
10654;DHT22;5375;51.250;6.776;2022-11-11T04:50:32;19.60;55.90
10654;DHT22;5375;51.250;6.776;2022-11-11T04:52:59;19.60;56.00
10654;DHT22;5375;51.250;6.776;2022-11-11T04:55:25;19.60;55.90
10654;DHT22;5375;51.250;6.776;2022-11-11T04:58:10;19.60;55.90
10654;DHT22;5375;51.250;6.776;2022-11-11T05:00:35;19.60;56.00
10654;DHT22;5375;51.250;6.776;2022-11-11T05:03:01;19.60;56.10
10654;DHT22;5375;51.250;6.776;2022-11-11T05:05:59;19.60;56.20
10654;DHT22;5375;51.250;6.776;2022-11-11T05:08:48;19.60;56.30
10654;DHT22;5375;51.250;6.776;2022-11-11T05:13:53;19.60;56.60
10654;DHT22;5375;51.250;6.776;2022-11-11T05:16:43;19.60;56.50
10654;DHT22;5375;51.250;6.776;2022-11-11T05:19:28;19.60;56.50
10654;DHT22;5375;51.250;6.776;2022-11-11T05:22:19;19.60;56.60
10654;DHT22;5375;51.250;6.776;2022-11-11T05:24:46;19.60;56.60
10654;DHT22;5375;51.250;6.776;2022-11-11T05:27:30;19.70;56.60
10654;DHT22;5375;51.250;6.776;2022-11-11T05:29:56;19.70;56.60
10654;DHT22;5375;51.250;6.776;2022-11-11T05:32:22;19.70;56.60
10654;DHT22;5375;51.250;6.776;2022-11-11T05:34:48;19.70;56.50
10654;DHT22;5375;51.250;6.776;2022-11-11T05:37:15;19.70;56.50
10654;DHT22;5375;51.250;6.776;2022-11-11T05:39:41;19.70;56.60
10654;DHT22;5375;51.250;6.776;2022-11-11T05:42:08;19.70;56.60
10654;DHT22;5375;51.250;6.776;2022-11-11T05:44:34;19.70;56.50
10654;DHT22;5375;51.250;6.776;2022-11-11T05:47:00;19.70;56.50
10654;DHT22;5375;51.250;6.776;2022-11-11T05:49:25;19.70;56.40
10654;DHT22;5375;51.250;6.776;2022-11-11T05:51:51;19.70;56.40
10654;DHT22;5375;51.250;6.776;2022-11-11T05:54:18;19.70;56.40
10654;DHT22;5375;51.250;6.776;2022-11-11T05:56:43;19.70;56.40
10654;DHT22;5375;51.250;6.776;2022-11-11T05:59:09;19.70;56.30
10654;DHT22;5375;51.250;6.776;2022-11-11T06:01:36;19.70;56.40
10654;DHT22;5375;51.250;6.776;2022-11-11T06:04:03;19.70;56.40
10654;DHT22;5375;51.250;6.776;2022-11-11T06:06:29;19.70;56.40
10654;DHT22;5375;51.250;6.776;2022-11-11T06:08:55;19.70;56.30
10654;DHT22;5375;51.250;6.776;2022-11-11T06:11:21;19.70;56.20
10654;DHT22;5375;51.250;6.776;2022-11-11T06:13:47;19.70;56.90
10654;DHT22;5375;51.250;6.776;2022-11-11T06:16:13;19.70;56.20
10654;DHT22;5375;51.250;6.776;2022-11-11T06:18:39;19.70;56.20
10654;DHT22;5375;51.250;6.776;2022-11-11T06:21:04;19.70;56.10
10654;DHT22;5375;51.250;6.776;2022-11-11T06:23:30;19.70;56.10
10654;DHT22;5375;51.250;6.776;2022-11-11T06:25:56;19.70;56.10
10654;DHT22;5375;51.250;6.776;2022-11-11T06:28:42;19.70;56.10
10654;DHT22;5375;51.250;6.776;2022-11-11T06:31:09;19.70;56.10
10654;DHT22;5375;51.250;6.776;2022-11-11T06:33:36;19.80;56.20
10654;DHT22;5375;51.250;6.776;2022-11-11T06:36:03;19.70;56.10
10654;DHT22;5375;51.250;6.776;2022-11-11T06:38:30;19.80;56.20
10654;DHT22;5375;51.250;6.776;2022-11-11T06:40:56;19.80;56.20
10654;DHT22;5375;51.250;6.776;2022-11-11T06:43:21;19.70;56.10
10654;DHT22;5375;51.250;6.776;2022-11-11T06:45:51;19.80;56.10
10654;DHT22;5375;51.250;6.776;2022-11-11T06:48:18;19.80;56.10
10654;DHT22;5375;51.250;6.776;2022-11-11T06:50:43;19.80;56.10
10654;DHT22;5375;51.250;6.776;2022-11-11T06:53:11;19.80;56.10
10654;DHT22;5375;51.250;6.776;2022-11-11T06:55:37;19.80;56.00
10654;DHT22;5375;51.250;6.776;2022-11-11T07:00:31;19.80;56.00
10654;DHT22;5375;51.250;6.776;2022-11-11T07:02:57;19.80;56.00
10654;DHT22;5375;51.250;6.776;2022-11-11T07:05:23;19.80;56.00
10654;DHT22;5375;51.250;6.776;2022-11-11T07:07:49;19.80;55.90
10654;DHT22;5375;51.250;6.776;2022-11-11T07:10:14;19.80;56.00
10654;DHT22;5375;51.250;6.776;2022-11-11T07:12:42;19.80;56.00
10654;DHT22;5375;51.250;6.776;2022-11-11T07:15:08;19.80;56.00
10654;DHT22;5375;51.250;6.776;2022-11-11T07:17:34;19.80;56.00
10654;DHT22;5375;51.250;6.776;2022-11-11T07:20:00;19.80;56.00
10654;DHT22;5375;51.250;6.776;2022-11-11T07:22:26;19.80;55.90
10654;DHT22;5375;51.250;6.776;2022-11-11T07:24:51;19.80;55.90
10654;DHT22;5375;51.250;6.776;2022-11-11T07:27:17;19.80;55.80
10654;DHT22;5375;51.250;6.776;2022-11-11T07:29:42;19.80;55.80
10654;DHT22;5375;51.250;6.776;2022-11-11T07:32:08;19.80;55.80
10654;DHT22;5375;51.250;6.776;2022-11-11T07:34:34;19.80;55.80
10654;DHT22;5375;51.250;6.776;2022-11-11T07:37:00;19.80;55.80
10654;DHT22;5375;51.250;6.776;2022-11-11T07:39:25;19.80;55.80
10654;DHT22;5375;51.250;6.776;2022-11-11T07:41:51;19.80;55.80
10654;DHT22;5375;51.250;6.776;2022-11-11T07:44:16;19.80;55.80
10654;DHT22;5375;51.250;6.776;2022-11-11T07:46:42;19.70;55.70
10654;DHT22;5375;51.250;6.776;2022-11-11T07:49:07;19.70;55.70
10654;DHT22;5375;51.250;6.776;2022-11-11T07:51:33;19.70;55.80
10654;DHT22;5375;51.250;6.776;2022-11-11T07:53:59;19.80;55.90
10654;DHT22;5375;51.250;6.776;2022-11-11T07:56:24;19.80;56.00
10654;DHT22;5375;51.250;6.776;2022-11-11T07:58:50;19.70;55.90
10654;DHT22;5375;51.250;6.776;2022-11-11T08:01:16;19.70;55.90
10654;DHT22;5375;51.250;6.776;2022-11-11T08:03:41;19.80;55.80
10654;DHT22;5375;51.250;6.776;2022-11-11T08:06:17;19.80;55.80
10654;DHT22;5375;51.250;6.776;2022-11-11T08:08:43;19.80;55.70
10654;DHT22;5375;51.250;6.776;2022-11-11T08:11:09;19.80;55.70
10654;DHT22;5375;51.250;6.776;2022-11-11T08:13:35;19.80;55.70
10654;DHT22;5375;51.250;6.776;2022-11-11T08:16:08;19.80;55.70
10654;DHT22;5375;51.250;6.776;2022-11-11T08:18:34;19.80;55.70
10654;DHT22;5375;51.250;6.776;2022-11-11T08:21:01;19.80;55.70
10654;DHT22;5375;51.250;6.776;2022-11-11T08:23:27;19.80;55.70
10654;DHT22;5375;51.250;6.776;2022-11-11T08:26:00;19.80;55.60
10654;DHT22;5375;51.250;6.776;2022-11-11T08:28:31;19.80;55.60
10654;DHT22;5375;51.250;6.776;2022-11-11T08:30:58;19.80;55.60
10654;DHT22;5375;51.250;6.776;2022-11-11T08:33:24;19.80;55.60
10654;DHT22;5375;51.250;6.776;2022-11-11T08:35:50;19.80;55.60
10654;DHT22;5375;51.250;6.776;2022-11-11T08:38:18;19.80;56.10
10654;DHT22;5375;51.250;6.776;2022-11-11T08:40:43;19.80;55.50
10654;DHT22;5375;51.250;6.776;2022-11-11T08:43:09;19.80;55.50
10654;DHT22;5375;51.250;6.776;2022-11-11T08:45:35;19.80;55.50
10654;DHT22;5375;51.250;6.776;2022-11-11T08:48:00;19.80;55.40
10654;DHT22;5375;51.250;6.776;2022-11-11T08:50:26;19.80;55.40
10654;DHT22;5375;51.250;6.776;2022-11-11T08:52:52;19.80;55.40
10654;DHT22;5375;51.250;6.776;2022-11-11T08:55:18;19.80;55.40
10654;DHT22;5375;51.250;6.776;2022-11-11T08:57:44;19.80;55.40
10654;DHT22;5375;51.250;6.776;2022-11-11T09:00:11;19.80;55.40
10654;DHT22;5375;51.250;6.776;2022-11-11T09:02:37;19.80;55.30
10654;DHT22;5375;51.250;6.776;2022-11-11T09:05:03;19.80;55.40
10654;DHT22;5375;51.250;6.776;2022-11-11T09:07:28;19.80;55.40
10654;DHT22;5375;51.250;6.776;2022-11-11T09:09:54;19.80;55.30
10654;DHT22;5375;51.250;6.776;2022-11-11T09:12:20;19.80;56.00
10654;DHT22;5375;51.250;6.776;2022-11-11T09:14:45;19.70;55.30
10654;DHT22;5375;51.250;6.776;2022-11-11T09:17:12;19.80;55.40
10654;DHT22;5375;51.250;6.776;2022-11-11T09:19:38;19.80;55.40
10654;DHT22;5375;51.250;6.776;2022-11-11T09:22:03;19.80;55.50
10654;DHT22;5375;51.250;6.776;2022-11-11T09:24:30;19.80;55.50
10654;DHT22;5375;51.250;6.776;2022-11-11T09:26:55;19.80;55.50
10654;DHT22;5375;51.250;6.776;2022-11-11T09:29:21;19.80;55.50
10654;DHT22;5375;51.250;6.776;2022-11-11T09:31:46;19.80;55.50
10654;DHT22;5375;51.250;6.776;2022-11-11T09:34:12;19.80;55.40
10654;DHT22;5375;51.250;6.776;2022-11-11T09:36:38;19.80;55.40
10654;DHT22;5375;51.250;6.776;2022-11-11T09:39:04;19.80;55.40
10654;DHT22;5375;51.250;6.776;2022-11-11T09:44:35;19.80;55.40
10654;DHT22;5375;51.250;6.776;2022-11-11T09:50:32;19.70;55.50
10654;DHT22;5375;51.250;6.776;2022-11-11T09:58:00;19.70;55.70
10654;DHT22;5375;51.250;6.776;2022-11-11T10:00:31;19.80;55.80
10654;DHT22;5375;51.250;6.776;2022-11-11T10:03:11;19.80;55.80
10654;DHT22;5375;51.250;6.776;2022-11-11T10:06:18;19.80;55.80
10654;DHT22;5375;51.250;6.776;2022-11-11T10:08:55;19.80;55.80
10654;DHT22;5375;51.250;6.776;2022-11-11T10:11:47;19.70;55.80
10654;DHT22;5375;51.250;6.776;2022-11-11T10:14:16;19.70;55.80
10654;DHT22;5375;51.250;6.776;2022-11-11T10:20:04;19.80;55.80
10654;DHT22;5375;51.250;6.776;2022-11-11T10:22:34;19.70;55.90
10654;DHT22;5375;51.250;6.776;2022-11-11T10:25:08;19.80;56.00
10654;DHT22;5375;51.250;6.776;2022-11-11T10:27:44;19.70;55.80
10654;DHT22;5375;51.250;6.776;2022-11-11T10:30:28;19.70;55.90
10654;DHT22;5375;51.250;6.776;2022-11-11T10:35:55;19.70;55.80
10654;DHT22;5375;51.250;6.776;2022-11-11T10:38:38;19.70;55.90
10654;DHT22;5375;51.250;6.776;2022-11-11T10:41:20;19.70;55.90
10654;DHT22;5375;51.250;6.776;2022-11-11T10:43:47;19.80;55.90
10654;DHT22;5375;51.250;6.776;2022-11-11T10:46:38;19.80;55.80
10654;DHT22;5375;51.250;6.776;2022-11-11T10:49:24;19.80;55.80
10654;DHT22;5375;51.250;6.776;2022-11-11T11:00:14;19.70;55.80
10654;DHT22;5375;51.250;6.776;2022-11-11T11:03:14;19.80;55.90
10654;DHT22;5375;51.250;6.776;2022-11-11T11:06:08;19.80;55.80
10654;DHT22;5375;51.250;6.776;2022-11-11T11:08:38;19.80;55.80
10654;DHT22;5375;51.250;6.776;2022-11-11T11:11:35;19.70;55.80
10654;DHT22;5375;51.250;6.776;2022-11-11T11:14:09;19.80;55.70
10654;DHT22;5375;51.250;6.776;2022-11-11T11:16:45;19.70;55.80
10654;DHT22;5375;51.250;6.776;2022-11-11T11:19:16;19.70;55.70
10654;DHT22;5375;51.250;6.776;2022-11-11T11:24:34;19.70;55.70
10654;DHT22;5375;51.250;6.776;2022-11-11T11:27:05;19.70;55.70
10654;DHT22;5375;51.250;6.776;2022-11-11T11:29:38;19.70;56.30
10654;DHT22;5375;51.250;6.776;2022-11-11T11:32:16;19.70;55.70
10654;DHT22;5375;51.250;6.776;2022-11-11T11:34:43;19.70;55.80
10654;DHT22;5375;51.250;6.776;2022-11-11T11:37:09;19.70;55.80
10654;DHT22;5375;51.250;6.776;2022-11-11T11:39:37;19.80;55.90
10654;DHT22;5375;51.250;6.776;2022-11-11T11:42:04;19.80;56.00
10654;DHT22;5375;51.250;6.776;2022-11-11T11:44:32;19.80;56.00
10654;DHT22;5375;51.250;6.776;2022-11-11T11:55:04;19.80;56.00
10654;DHT22;5375;51.250;6.776;2022-11-11T12:00:18;19.80;55.90
10654;DHT22;5375;51.250;6.776;2022-11-11T12:05:53;19.70;55.80
10654;DHT22;5375;51.250;6.776;2022-11-11T12:08:38;19.80;55.90
10654;DHT22;5375;51.250;6.776;2022-11-11T12:11:16;19.80;55.90
10654;DHT22;5375;51.250;6.776;2022-11-11T12:16:34;19.80;55.80
10654;DHT22;5375;51.250;6.776;2022-11-11T12:19:16;19.70;55.70
10654;DHT22;5375;51.250;6.776;2022-11-11T12:22:10;19.70;55.80
10654;DHT22;5375;51.250;6.776;2022-11-11T12:27:38;19.70;55.70
10654;DHT22;5375;51.250;6.776;2022-11-11T12:30:17;19.70;55.80
10654;DHT22;5375;51.250;6.776;2022-11-11T12:35:48;19.70;55.70
10654;DHT22;5375;51.250;6.776;2022-11-11T12:41:06;19.70;55.70
10654;DHT22;5375;51.250;6.776;2022-11-11T12:44:05;19.70;55.80
10654;DHT22;5375;51.250;6.776;2022-11-11T12:52:16;19.80;55.90
10654;DHT22;5375;51.250;6.776;2022-11-11T13:00:26;19.70;55.80
10654;DHT22;5375;51.250;6.776;2022-11-11T13:03:31;19.80;55.90
10654;DHT22;5375;51.250;6.776;2022-11-11T13:06:09;19.80;55.80
10654;DHT22;5375;51.250;6.776;2022-11-11T13:08:52;19.80;55.90
10654;DHT22;5375;51.250;6.776;2022-11-11T13:12:01;19.80;55.90
10654;DHT22;5375;51.250;6.776;2022-11-11T13:17:00;19.80;56.00
10654;DHT22;5375;51.250;6.776;2022-11-11T13:22:21;19.80;55.90
10654;DHT22;5375;51.250;6.776;2022-11-11T13:24:49;19.80;56.00
10654;DHT22;5375;51.250;6.776;2022-11-11T13:27:22;19.80;55.90
10654;DHT22;5375;51.250;6.776;2022-11-11T13:37:50;19.80;55.90
10654;DHT22;5375;51.250;6.776;2022-11-11T13:40:31;19.80;55.90
10654;DHT22;5375;51.250;6.776;2022-11-11T13:42:58;19.80;55.90
10654;DHT22;5375;51.250;6.776;2022-11-11T13:45:29;19.80;55.90
10654;DHT22;5375;51.250;6.776;2022-11-11T13:47:57;19.80;55.90
10654;DHT22;5375;51.250;6.776;2022-11-11T13:50:35;19.80;55.90
10654;DHT22;5375;51.250;6.776;2022-11-11T13:53:05;19.80;55.80
10654;DHT22;5375;51.250;6.776;2022-11-11T13:55:42;19.80;55.90
10654;DHT22;5375;51.250;6.776;2022-11-11T13:58:28;19.80;55.90
10654;DHT22;5375;51.250;6.776;2022-11-11T14:01:08;19.80;55.80
10654;DHT22;5375;51.250;6.776;2022-11-11T14:13:53;19.80;55.80
10654;DHT22;5375;51.250;6.776;2022-11-11T14:22:01;19.80;55.80
10654;DHT22;5375;51.250;6.776;2022-11-11T14:24:36;19.80;55.90
10654;DHT22;5375;51.250;6.776;2022-11-11T14:27:13;19.80;55.90
10654;DHT22;5375;51.250;6.776;2022-11-11T14:29:54;19.80;56.00
10654;DHT22;5375;51.250;6.776;2022-11-11T14:32:38;19.80;56.00
10654;DHT22;5375;51.250;6.776;2022-11-11T14:40:39;19.80;56.00
10654;DHT22;5375;51.250;6.776;2022-11-11T14:43:37;19.80;56.10
10654;DHT22;5375;51.250;6.776;2022-11-11T14:46:07;19.80;56.10
10654;DHT22;5375;51.250;6.776;2022-11-11T14:57:17;19.80;55.90
10654;DHT22;5375;51.250;6.776;2022-11-11T14:59:45;19.80;56.00
10654;DHT22;5375;51.250;6.776;2022-11-11T15:02:21;19.80;56.00
10654;DHT22;5375;51.250;6.776;2022-11-11T15:04:48;19.80;55.90
10654;DHT22;5375;51.250;6.776;2022-11-11T15:07:23;19.80;55.90
10654;DHT22;5375;51.250;6.776;2022-11-11T15:12:58;19.80;56.00
10654;DHT22;5375;51.250;6.776;2022-11-11T15:15:46;19.80;56.00
10654;DHT22;5375;51.250;6.776;2022-11-11T15:24:39;19.80;56.00
10654;DHT22;5375;51.250;6.776;2022-11-11T15:26:44;19.80;56.00
10654;DHT22;5375;51.250;6.776;2022-11-11T15:34:42;19.80;56.00
10654;DHT22;5375;51.250;6.776;2022-11-11T15:37:18;19.80;55.90
10654;DHT22;5375;51.250;6.776;2022-11-11T15:39:51;19.80;55.90
10654;DHT22;5375;51.250;6.776;2022-11-11T15:42:39;19.80;55.90
10654;DHT22;5375;51.250;6.776;2022-11-11T15:47:46;19.80;55.90
10654;DHT22;5375;51.250;6.776;2022-11-11T15:50:17;19.80;56.00
10654;DHT22;5375;51.250;6.776;2022-11-11T15:52:43;19.80;55.90
10654;DHT22;5375;51.250;6.776;2022-11-11T15:55:25;19.80;56.00
10654;DHT22;5375;51.250;6.776;2022-11-11T15:57:51;19.80;56.00
10654;DHT22;5375;51.250;6.776;2022-11-11T16:02:50;19.80;56.00
10654;DHT22;5375;51.250;6.776;2022-11-11T16:05:24;19.80;56.00
10654;DHT22;5375;51.250;6.776;2022-11-11T16:07:52;19.80;56.00
10654;DHT22;5375;51.250;6.776;2022-11-11T16:10:31;19.80;56.00
10654;DHT22;5375;51.250;6.776;2022-11-11T16:13:17;19.80;56.00
10654;DHT22;5375;51.250;6.776;2022-11-11T16:16:02;19.80;56.00
10654;DHT22;5375;51.250;6.776;2022-11-11T16:18:37;19.80;56.10
10654;DHT22;5375;51.250;6.776;2022-11-11T16:21:05;19.80;56.20
10654;DHT22;5375;51.250;6.776;2022-11-11T16:23:32;19.80;56.20
10654;DHT22;5375;51.250;6.776;2022-11-11T16:25:58;19.80;56.20
10654;DHT22;5375;51.250;6.776;2022-11-11T16:28:26;19.80;56.30
10654;DHT22;5375;51.250;6.776;2022-11-11T16:30:53;19.80;56.30
10654;DHT22;5375;51.250;6.776;2022-11-11T16:35:50;19.80;56.30
10654;DHT22;5375;51.250;6.776;2022-11-11T16:38:32;19.80;56.30
10654;DHT22;5375;51.250;6.776;2022-11-11T16:40:58;19.80;56.30
10654;DHT22;5375;51.250;6.776;2022-11-11T16:43:32;19.80;56.40
10654;DHT22;5375;51.250;6.776;2022-11-11T16:46:07;19.80;56.40
10654;DHT22;5375;51.250;6.776;2022-11-11T16:51:04;19.80;56.40
10654;DHT22;5375;51.250;6.776;2022-11-11T16:53:34;19.80;56.40
10654;DHT22;5375;51.250;6.776;2022-11-11T16:56:01;19.80;56.50
10654;DHT22;5375;51.250;6.776;2022-11-11T16:58:28;19.80;56.50
10654;DHT22;5375;51.250;6.776;2022-11-11T17:01:01;19.80;56.50
10654;DHT22;5375;51.250;6.776;2022-11-11T17:03:28;19.80;56.50
10654;DHT22;5375;51.250;6.776;2022-11-11T17:05:59;19.80;56.50
10654;DHT22;5375;51.250;6.776;2022-11-11T17:11:49;19.80;56.50
10654;DHT22;5375;51.250;6.776;2022-11-11T17:13:49;19.80;56.60
10654;DHT22;5375;51.250;6.776;2022-11-11T17:16:15;19.80;56.50
10654;DHT22;5375;51.250;6.776;2022-11-11T17:18:41;19.80;56.60
10654;DHT22;5375;51.250;6.776;2022-11-11T17:21:06;19.70;56.50
10654;DHT22;5375;51.250;6.776;2022-11-11T17:23:32;19.80;56.60
10654;DHT22;5375;51.250;6.776;2022-11-11T17:25:59;19.80;56.60
10654;DHT22;5375;51.250;6.776;2022-11-11T17:28:30;19.70;56.50
10654;DHT22;5375;51.250;6.776;2022-11-11T17:30:56;19.70;56.50
10654;DHT22;5375;51.250;6.776;2022-11-11T17:33:25;19.80;56.60
10654;DHT22;5375;51.250;6.776;2022-11-11T17:35:52;19.80;56.60
10654;DHT22;5375;51.250;6.776;2022-11-11T17:38:19;19.70;56.50
10654;DHT22;5375;51.250;6.776;2022-11-11T17:40:45;19.70;56.50
10654;DHT22;5375;51.250;6.776;2022-11-11T17:43:12;19.70;56.50
10654;DHT22;5375;51.250;6.776;2022-11-11T17:45:37;19.70;56.50
10654;DHT22;5375;51.250;6.776;2022-11-11T17:48:03;19.70;56.50
10654;DHT22;5375;51.250;6.776;2022-11-11T17:50:29;19.70;56.50
10654;DHT22;5375;51.250;6.776;2022-11-11T17:52:55;19.70;56.50
10654;DHT22;5375;51.250;6.776;2022-11-11T17:55:22;19.70;56.50
10654;DHT22;5375;51.250;6.776;2022-11-11T17:57:47;19.70;56.50
10654;DHT22;5375;51.250;6.776;2022-11-11T18:00:14;19.70;56.50
10654;DHT22;5375;51.250;6.776;2022-11-11T18:02:40;19.70;56.50
10654;DHT22;5375;51.250;6.776;2022-11-11T18:05:06;19.70;56.50
10654;DHT22;5375;51.250;6.776;2022-11-11T18:07:32;19.70;56.40
10654;DHT22;5375;51.250;6.776;2022-11-11T18:09:58;19.70;56.50
10654;DHT22;5375;51.250;6.776;2022-11-11T18:12:29;19.70;56.40
10654;DHT22;5375;51.250;6.776;2022-11-11T18:14:55;19.70;56.40
10654;DHT22;5375;51.250;6.776;2022-11-11T18:17:21;19.70;56.40
10654;DHT22;5375;51.250;6.776;2022-11-11T18:19:48;19.70;56.50
10654;DHT22;5375;51.250;6.776;2022-11-11T18:22:14;19.70;56.40
10654;DHT22;5375;51.250;6.776;2022-11-11T18:24:40;19.70;57.00
10654;DHT22;5375;51.250;6.776;2022-11-11T18:27:05;19.70;56.50
10654;DHT22;5375;51.250;6.776;2022-11-11T18:29:31;19.70;56.40
10654;DHT22;5375;51.250;6.776;2022-11-11T18:31:58;19.70;57.00
10654;DHT22;5375;51.250;6.776;2022-11-11T18:34:23;19.70;56.40
10654;DHT22;5375;51.250;6.776;2022-11-11T18:36:51;19.70;56.40
10654;DHT22;5375;51.250;6.776;2022-11-11T18:39:16;19.70;56.40